createdAt,value
2022-12-19T00:02:26.276Z,24.27
2022-12-19T00:07:33.486Z,24.36
2022-12-19T00:12:40.565Z,24.19
2022-12-19T00:17:47.802Z,24.11
2022-12-19T00:22:55.090Z,24.10
2022-12-19T00:28:02.181Z,24.03
2022-12-19T00:33:09.382Z,24.01
2022-12-19T00:38:16.709Z,23.97
2022-12-19T00:43:23.791Z,24.08
2022-12-19T00:48:31.000Z,24.18
2022-12-19T00:53:38.313Z,24.27
2022-12-19T00:58:47.249Z,24.36
2022-12-19T01:04:26.525Z,24.39
2022-12-19T01:09:00.012Z,24.38
2022-12-19T01:14:07.069Z,24.36
2022-12-19T01:19:14.231Z,24.27
2022-12-19T01:24:21.594Z,24.17
2022-12-19T01:29:28.655Z,24.10
2022-12-19T01:34:35.823Z,23.97
2022-12-19T01:39:43.167Z,23.88
2022-12-19T01:44:50.283Z,23.76
2022-12-19T01:49:57.486Z,23.67
2022-12-19T01:55:04.775Z,23.50
2022-12-19T02:00:11.888Z,23.41
2022-12-19T02:05:19.050Z,23.27
2022-12-19T02:10:26.367Z,23.14
2022-12-19T02:15:33.473Z,23.06
2022-12-19T02:20:40.623Z,22.91
2022-12-19T02:25:47.908Z,22.77
2022-12-19T02:30:54.963Z,22.53
2022-12-19T02:36:02.171Z,22.44
2022-12-19T02:41:09.522Z,22.34
2022-12-19T02:46:16.651Z,21.94
2022-12-19T02:51:23.812Z,21.65
2022-12-19T02:56:31.154Z,21.54
2022-12-19T03:01:38.482Z,21.36
2022-12-19T03:06:45.496Z,21.15
2022-12-19T03:11:52.854Z,21.02
2022-12-19T03:17:00.039Z,20.76
2022-12-19T03:22:07.140Z,20.53
2022-12-19T03:27:14.458Z,20.31
2022-12-19T03:32:21.555Z,20.11
2022-12-19T03:37:28.769Z,19.97
2022-12-19T03:42:36.060Z,19.92
2022-12-19T03:47:43.171Z,19.95
2022-12-19T03:52:50.369Z,19.73
2022-12-19T03:57:57.633Z,19.56
2022-12-19T04:03:04.738Z,19.35
2022-12-19T04:08:11.862Z,19.18
2022-12-19T04:13:19.222Z,19.09
2022-12-19T04:18:26.310Z,19.05
2022-12-19T04:23:33.499Z,19.00
2022-12-19T04:28:40.838Z,18.97
2022-12-19T04:33:47.951Z,18.95
2022-12-19T04:38:55.119Z,18.93
2022-12-19T04:44:02.451Z,18.88
2022-12-19T04:49:09.532Z,18.86
2022-12-19T04:54:16.739Z,18.80
2022-12-19T04:59:24.057Z,18.77
2022-12-19T05:04:31.146Z,18.65
2022-12-19T05:09:38.346Z,18.57
2022-12-19T05:14:45.650Z,18.55
2022-12-19T05:19:52.755Z,18.47
2022-12-19T05:24:59.965Z,18.42
2022-12-19T05:30:07.246Z,18.29
2022-12-19T05:35:14.258Z,18.42
2022-12-19T05:40:21.429Z,18.68
2022-12-19T05:45:28.703Z,18.91
2022-12-19T05:50:35.743Z,18.95
2022-12-19T05:55:42.875Z,18.88
2022-12-19T06:00:50.199Z,18.74
2022-12-19T06:05:57.294Z,18.66
2022-12-19T06:11:04.483Z,18.49
2022-12-19T06:16:11.872Z,18.55
2022-12-19T06:21:18.860Z,18.53
2022-12-19T06:26:26.123Z,18.23
2022-12-19T06:31:33.500Z,18.03
2022-12-19T06:36:40.467Z,18.59
2022-12-19T06:41:47.664Z,19.03
2022-12-19T06:46:54.948Z,19.39
2022-12-19T06:52:06.277Z,19.68
2022-12-19T06:57:09.236Z,19.91
2022-12-19T07:02:16.626Z,20.13
2022-12-19T07:07:23.645Z,20.29
2022-12-19T07:12:30.860Z,20.46
2022-12-19T07:17:38.992Z,20.60
2022-12-19T07:22:46.039Z,20.74
2022-12-19T07:27:53.275Z,20.89
2022-12-19T07:33:00.623Z,21.16
2022-12-19T07:38:07.678Z,21.35
2022-12-19T07:43:14.884Z,21.54
2022-12-19T07:48:22.251Z,21.69
2022-12-19T07:53:29.302Z,21.94
2022-12-19T07:58:36.459Z,22.10
2022-12-19T08:03:43.810Z,22.25
2022-12-19T08:08:50.904Z,22.41
2022-12-19T08:13:58.117Z,22.47
2022-12-19T08:19:05.378Z,22.56
2022-12-19T08:24:12.941Z,22.54
2022-12-19T08:29:20.125Z,22.60
2022-12-19T08:34:27.510Z,22.68
2022-12-19T08:39:34.657Z,22.71
2022-12-19T08:44:41.919Z,22.82
2022-12-19T08:49:49.085Z,22.90
2022-12-19T08:54:56.268Z,23.00
2022-12-19T09:00:03.476Z,23.03
2022-12-19T09:06:03.782Z,23.02
2022-12-19T09:10:17.936Z,22.94
2022-12-19T09:15:25.108Z,22.84
2022-12-19T09:20:32.445Z,22.85
2022-12-19T09:25:39.515Z,22.83
2022-12-19T09:30:46.838Z,22.77
2022-12-19T09:35:55.476Z,22.84
2022-12-19T09:41:01.214Z,22.87
2022-12-19T09:46:08.461Z,22.81
2022-12-19T09:51:15.754Z,22.77
2022-12-19T09:56:22.842Z,22.65
2022-12-19T10:01:30.234Z,22.53
2022-12-19T10:07:15.773Z,22.42
2022-12-19T10:12:43.488Z,22.27
2022-12-19T10:17:08.916Z,22.22
2022-12-19T10:22:17.658Z,22.19
2022-12-19T10:27:06.101Z,22.09
2022-12-19T10:32:13.375Z,22.04
2022-12-19T10:37:28.738Z,21.92
2022-12-19T10:42:28.334Z,21.84
2022-12-19T10:47:35.594Z,21.72
2022-12-19T10:52:42.857Z,21.63
2022-12-19T10:57:49.994Z,21.48
2022-12-19T11:02:57.457Z,21.38
2022-12-19T11:08:04.563Z,21.24
2022-12-19T11:17:35.084Z,21.11
2022-12-19T11:26:53.925Z,20.99
2022-12-19T11:30:09.730Z,20.80
2022-12-19T11:30:40.967Z,20.56
2022-12-19T11:33:40.572Z,20.40
2022-12-19T11:38:47.853Z,20.20
2022-12-19T11:43:54.932Z,20.07
2022-12-19T11:49:02.109Z,19.96
2022-12-19T11:54:09.388Z,19.84
2022-12-19T11:59:16.479Z,19.79
2022-12-19T12:04:23.745Z,19.68
2022-12-19T12:14:24.116Z,19.84
2022-12-19T12:25:09.408Z,19.96
2022-12-19T12:31:17.815Z,20.04
2022-12-19T12:31:39.010Z,20.13
2022-12-19T12:31:46.585Z,20.10
2022-12-19T12:37:18.797Z,20.18
2022-12-19T12:40:14.366Z,20.19
2022-12-19T12:45:21.539Z,20.17
2022-12-19T12:50:28.862Z,20.15
2022-12-19T12:55:36.110Z,20.13
2022-12-19T13:00:43.321Z,20.10
2022-12-19T13:05:50.532Z,20.07
2022-12-19T13:10:57.797Z,20.02
2022-12-19T13:16:04.966Z,20.00
2022-12-19T13:21:12.171Z,19.95
2022-12-19T13:26:19.908Z,19.90
2022-12-19T13:31:26.661Z,19.77
2022-12-19T13:39:50.478Z,19.67
2022-12-19T13:41:41.104Z,19.57
2022-12-19T13:46:48.264Z,19.58
2022-12-19T13:51:57.359Z,19.60
2022-12-19T13:57:09.272Z,19.62
2022-12-19T14:02:10.153Z,19.67
2022-12-19T14:07:17.179Z,19.68
2022-12-19T14:13:43.222Z,19.70
2022-12-19T14:17:31.551Z,19.71
2022-12-19T14:22:38.727Z,19.73
2022-12-19T14:28:23.521Z,19.72
2022-12-19T14:33:47.104Z,19.76
2022-12-19T14:39:19.332Z,19.74
2022-12-19T14:43:58.646Z,19.74
2022-12-19T14:54:06.399Z,19.70
2022-12-19T14:54:47.650Z,19.67
2022-12-19T14:58:53.924Z,19.62
2022-12-19T15:03:36.583Z,19.57
2022-12-19T15:09:50.758Z,19.47
2022-12-19T15:14:57.902Z,19.33
2022-12-19T15:18:58.008Z,19.29
2022-12-19T15:24:05.192Z,19.31
2022-12-19T15:29:16.683Z,19.31
2022-12-19T15:34:40.175Z,19.37
2022-12-19T15:39:26.813Z,19.40
2022-12-19T15:44:34.055Z,19.45
2022-12-19T15:49:41.187Z,19.51
2022-12-19T15:54:50.143Z,19.50
2022-12-19T15:59:55.629Z,19.53
2022-12-19T16:05:04.568Z,19.52
2022-12-19T16:10:09.995Z,19.51
2022-12-19T16:15:17.267Z,19.47
2022-12-19T16:20:24.613Z,19.43
2022-12-19T16:25:31.811Z,19.43
2022-12-19T16:30:39.071Z,19.37
2022-12-19T16:40:53.552Z,19.18
2022-12-19T16:46:01.964Z,19.11
2022-12-19T16:51:07.953Z,19.03
2022-12-19T16:56:15.174Z,19.06
2022-12-19T17:01:22.531Z,19.09
2022-12-19T17:06:29.589Z,19.12
2022-12-19T17:11:36.830Z,19.15
2022-12-19T17:16:44.205Z,19.26
2022-12-19T17:21:51.293Z,19.28
2022-12-19T17:26:58.506Z,19.29
2022-12-19T17:32:05.747Z,19.29
2022-12-19T17:37:12.903Z,19.26
2022-12-19T17:42:20.188Z,19.22
2022-12-19T17:47:32.423Z,19.20
2022-12-19T17:52:41.439Z,19.17
2022-12-19T17:57:48.671Z,19.16
2022-12-19T18:02:56.110Z,19.09
2022-12-19T18:08:05.022Z,19.05
2022-12-19T18:13:13.986Z,18.97
2022-12-19T18:18:21.179Z,18.87
2022-12-19T18:23:28.363Z,18.91
2022-12-19T18:28:35.580Z,18.87
2022-12-19T18:33:44.991Z,18.93
2022-12-19T18:38:52.154Z,19.02
2022-12-19T18:43:59.639Z,19.14
2022-12-19T18:49:07.000Z,19.14
2022-12-19T18:54:16.182Z,19.18
2022-12-19T18:59:23.366Z,19.20
2022-12-19T19:04:30.658Z,19.23
2022-12-19T19:09:38.031Z,19.21
2022-12-19T19:14:45.453Z,19.17
2022-12-19T19:19:52.893Z,19.16
2022-12-19T19:25:00.230Z,19.14
2022-12-19T19:30:07.481Z,19.09
2022-12-19T19:35:14.692Z,19.07
2022-12-19T19:40:24.011Z,19.01
2022-12-19T19:45:31.224Z,18.96
2022-12-19T19:50:38.453Z,18.88
2022-12-19T19:55:45.626Z,18.85
2022-12-19T20:00:53.150Z,18.82
2022-12-19T20:06:04.365Z,18.82
2022-12-19T20:11:11.845Z,18.89
2022-12-19T20:16:19.353Z,18.98
2022-12-19T20:21:27.120Z,19.09
2022-12-19T20:26:36.481Z,19.11
2022-12-19T20:31:43.774Z,19.13
2022-12-19T20:36:51.286Z,19.12
2022-12-19T20:41:58.566Z,19.10
2022-12-19T20:47:05.878Z,19.10
2022-12-19T20:52:13.045Z,19.11
2022-12-19T20:57:20.276Z,19.07
2022-12-19T21:02:46.284Z,19.05
2022-12-19T21:07:36.588Z,18.99
2022-12-19T21:12:47.678Z,18.93
2022-12-19T21:17:50.854Z,18.89
2022-12-19T21:22:58.090Z,18.83
2022-12-19T21:28:05.329Z,18.72
2022-12-19T21:33:14.387Z,18.73
2022-12-19T21:38:21.598Z,18.76
2022-12-19T21:43:28.801Z,18.85
2022-12-19T21:48:36.011Z,18.91
2022-12-19T21:53:43.271Z,19.00
2022-12-19T21:58:50.418Z,19.02
2022-12-19T22:03:57.848Z,19.01
2022-12-19T22:09:04.932Z,19.00
2022-12-19T22:14:12.135Z,18.99
2022-12-19T22:19:19.325Z,19.00
2022-12-19T22:24:26.588Z,18.97
2022-12-19T22:29:33.815Z,18.92
2022-12-19T22:34:41.046Z,18.91
2022-12-19T22:39:48.344Z,18.87
2022-12-19T22:44:55.573Z,18.81
2022-12-19T22:50:02.771Z,18.74
2022-12-19T22:55:09.993Z,18.67
2022-12-19T23:00:17.146Z,18.65
2022-12-19T23:05:26.893Z,18.71
2022-12-19T23:10:34.199Z,18.84
2022-12-19T23:15:41.386Z,19.07
2022-12-19T23:20:48.598Z,19.24
2022-12-19T23:25:55.817Z,19.39
2022-12-19T23:31:03.026Z,19.51
2022-12-19T23:36:10.285Z,19.66
2022-12-19T23:41:17.959Z,19.80
2022-12-19T23:46:25.260Z,19.92
2022-12-19T23:51:32.346Z,20.06
2022-12-19T23:56:39.546Z,20.16
